Time;durP1;ratioP1;P1;durP2;ratioP2;P2;SDS_P1;SDS_P2;PMS_P1;PMS_P2;Temp;Humidity;BMP_temperature;BMP_pressure;BME280_temperature;BME280_humidity;BME280_pressure;Samples;Min_cycle;Max_cycle;Signal;HPM_P1;HPM_P2
2022/03/12 00:01:10;;;;;;;9.13;7.15;;;;;;;7.02;60.13;102265.72;5004565;28;102491;-50
2022/03/12 00:03:37;;;;;;;8.02;7.00;;;;;;;7.01;59.31;102266.75;5005329;28;103894;-50
2022/03/12 00:06:06;;;;;;;9.15;7.50;;;;;;;7.01;59.56;102274.88;4993974;28;101856;-50
2022/03/12 00:08:44;;;;;;;10.18;7.40;;;;;;;7.01;60.42;102272.19;4992516;28;102275;-50
2022/03/12 00:11:34;;;;;;;10.25;7.05;;;;;;;7.00;60.65;102271.34;5000864;28;102538;-50
2022/03/12 00:14:03;;;;;;;10.57;7.30;;;;;;;7.02;59.86;102273.84;5011442;28;103990;-50
2022/03/12 00:16:29;;;;;;;9.73;7.38;;;;;;;7.01;60.48;102273.00;5013747;28;102333;-50
2022/03/12 00:18:58;;;;;;;10.48;7.07;;;;;;;7.01;60.77;102266.75;5012591;28;104081;-49
2022/03/12 00:21:27;;;;;;;8.32;6.95;;;;;;;7.01;60.30;102266.75;5007944;28;102449;-49
2022/03/12 00:23:56;;;;;;;8.50;7.00;;;;;;;7.01;59.88;102255.94;5007536;28;103921;-49
2022/03/12 00:26:23;;;;;;;10.63;7.50;;;;;;;6.99;60.38;102259.66;5011145;27;102599;-50
2022/03/12 00:28:54;;;;;;;11.13;7.38;;;;;;;6.98;60.34;102263.41;4992928;28;102424;-50
2022/03/12 00:31:20;;;;;;;11.30;7.10;;;;;;;6.98;60.32;102260.72;4994065;28;102214;-50
2022/03/12 00:33:47;;;;;;;8.95;6.95;;;;;;;6.98;59.87;102252.59;4992245;28;103746;-50
2022/03/12 00:36:14;;;;;;;11.15;7.30;;;;;;;6.98;60.30;102258.00;5002749;28;102051;-50
2022/03/12 00:38:40;;;;;;;11.38;7.43;;;;;;;6.98;59.89;102258.00;5011708;28;102648;-50
2022/03/12 00:41:08;;;;;;;10.00;7.10;;;;;;;6.98;59.34;102263.41;4974372;28;102277;-49
2022/03/12 00:43:35;;;;;;;9.80;7.43;;;;;;;6.97;60.08;102256.34;4972506;28;103912;-50
2022/03/12 00:46:05;;;;;;;9.50;7.13;;;;;;;6.97;59.59;102256.34;4973005;28;102273;-50
2022/03/12 00:48:33;;;;;;;9.55;7.10;;;;;;;6.97;60.12;102252.81;4956026;28;102041;-50
2022/03/12 00:50:59;;;;;;;12.45;7.80;;;;;;;6.96;60.32;102257.41;4954506;28;102540;-49
2022/03/12 00:53:26;;;;;;;11.02;7.72;;;;;;;6.97;60.29;102256.34;4952663;28;103892;-50
2022/03/12 00:55:52;;;;;;;10.25;7.30;;;;;;;6.96;60.66;102257.41;4953779;28;102477;-49
2022/03/12 00:58:19;;;;;;;10.18;7.15;;;;;;;6.98;59.91;102268.00;4964286;28;102385;-50
2022/03/12 01:00:45;;;;;;;12.90;8.63;;;;;;;6.97;59.79;102267.19;4973106;28;102298;-49
2022/03/12 01:03:14;;;;;;;11.82;8.02;;;;;;;6.97;59.77;102264.47;4972591;28;103646;-49
2022/03/12 01:05:52;;;;;;;12.90;7.88;;;;;;;6.97;59.59;102278.00;4984571;28;102634;-49
2022/03/12 01:08:20;;;;;;;12.53;8.03;;;;;;;6.97;60.25;102267.19;4971179;28;102445;-50
2022/03/12 01:11:09;;;;;;;14.73;7.57;;;;;;;6.97;59.53;102271.75;4973449;28;103094;-49
2022/03/12 01:13:39;;;;;;;14.55;8.95;;;;;;;6.96;59.68;102265.53;4981223;28;103389;-49
2022/03/12 01:16:06;;;;;;;12.13;8.25;;;;;;;6.97;59.58;102272.59;4967136;28;102261;-50
2022/03/12 01:18:38;;;;;;;9.77;6.33;;;;;;;6.97;59.87;102260.94;4971876;28;102221;-50
2022/03/12 01:21:10;;;;;;;14.45;9.05;;;;;;;6.97;59.81;102261.75;4966998;28;102370;-49
2022/03/12 01:23:37;;;;;;;12.10;7.82;;;;;;;6.96;59.87;102259.28;4952045;28;104069;-49
2022/03/12 01:26:03;;;;;;;12.57;8.10;;;;;;;6.96;59.19;102257.41;4953494;28;101871;-49
2022/03/12 01:28:30;;;;;;;12.43;7.72;;;;;;;6.97;60.29;102260.94;4952664;28;102511;-50
2022/03/12 01:30:59;;;;;;;12.80;8.20;;;;;;;6.97;60.22;102269.06;4972567;28;102361;-49
2022/03/12 01:33:26;;;;;;;11.50;7.53;;;;;;;6.97;59.62;102269.06;4972383;28;103875;-50
2022/03/12 01:35:54;;;;;;;15.05;8.60;;;;;;;6.96;60.05;102270.94;4972936;28;102040;-50
2022/03/12 01:38:29;;;;;;;14.27;9.05;;;;;;;6.96;59.88;102276.34;4971451;28;102461;-50
2022/03/12 01:40:55;;;;;;;14.48;8.00;;;;;;;6.96;59.81;102268.22;5024579;28;102256;-49
2022/03/12 01:43:22;;;;;;;14.57;8.05;;;;;;;6.96;60.73;102270.09;5022300;28;103776;-50
2022/03/12 01:45:49;;;;;;;15.00;8.82;;;;;;;6.96;60.28;102270.94;5018520;27;101995;-49
2022/03/12 01:48:16;;;;;;;16.13;9.05;;;;;;;6.96;60.13;102281.75;5013182;28;102205;-50
2022/03/12 01:50:44;;;;;;;15.05;8.30;;;;;;;6.95;59.77;102280.06;5009058;28;102054;-49
2022/03/12 01:53:12;;;;;;;15.85;8.43;;;;;;;6.96;59.17;102279.06;5011899;28;104115;-49
2022/03/12 01:55:39;;;;;;;13.23;8.13;;;;;;;6.96;60.74;102280.94;5012651;28;101885;-50
2022/03/12 01:58:07;;;;;;;13.43;8.15;;;;;;;6.96;60.58;102281.75;5011362;28;102485;-50
2022/03/12 02:00:43;;;;;;;11.32;7.93;;;;;;;6.95;59.92;102285.50;5010677;28;102525;-49
2022/03/12 02:03:11;;;;;;;13.27;8.23;;;;;;;6.95;59.25;102292.78;4992899;28;104800;-50
2022/03/12 02:05:38;;;;;;;12.95;7.72;;;;;;;6.95;59.52;102299.03;5005781;28;103596;-50
2022/03/12 02:08:16;;;;;;;14.43;8.23;;;;;;;6.96;59.75;102291.75;5011999;28;102366;-50
2022/03/12 02:10:47;;;;;;;14.85;8.43;;;;;;;6.96;59.63;102297.16;5013170;28;102751;-50
2022/03/12 02:13:14;;;;;;;14.60;7.60;;;;;;;6.95;59.51;102290.06;5011180;28;102966;-50
2022/03/12 02:16:09;;;;;;;12.68;7.88;;;;;;;6.95;59.97;102288.19;4994805;28;101933;-49
2022/03/12 02:18:39;;;;;;;15.98;8.55;;;;;;;6.95;59.86;102296.31;4992903;28;102134;-50
2022/03/12 02:21:06;;;;;;;14.05;8.27;;;;;;;6.95;59.57;102290.06;4993325;28;102257;-50
2022/03/12 02:23:45;;;;;;;14.80;8.63;;;;;;;6.94;60.13;102297.38;4991578;28;104039;-50
2022/03/12 02:26:12;;;;;;;11.35;8.07;;;;;;;6.94;59.74;102300.06;5001802;28;102378;-49
2022/03/12 02:28:38;;;;;;;12.85;7.95;;;;;;;6.94;60.61;102305.50;4998318;28;103076;-50
2022/03/12 02:31:06;;;;;;;15.63;7.47;;;;;;;6.95;59.86;102304.44;4996054;28;102852;-49
2022/03/12 02:33:33;;;;;;;11.38;7.78;;;;;;;6.94;60.72;102310.91;5011475;28;103928;-50
2022/03/12 02:36:00;;;;;;;13.52;7.60;;;;;;;6.95;60.69;102317.13;5012136;28;102235;-50
2022/03/12 02:38:28;;;;;;;12.50;8.23;;;;;;;6.95;59.96;102311.72;4999615;28;102141;-50
2022/03/12 02:40:56;;;;;;;9.80;5.93;;;;;;;6.94;59.75;102310.91;4996830;28;102585;-50
2022/03/12 02:43:26;;;;;;;11.75;7.40;;;;;;;6.94;59.63;102321.72;5011020;28;103990;-49
2022/03/12 02:45:59;;;;;;;13.85;7.75;;;;;;;6.93;59.60;102314.66;5011140;28;102608;-49
2022/03/12 02:48:25;;;;;;;10.35;7.40;;;;;;;6.94;59.88;102312.78;4997972;28;102258;-49
2022/03/12 02:50:54;;;;;;;11.20;6.70;;;;;;;6.93;60.55;102311.94;4993355;28;102664;-50
2022/03/12 02:53:21;;;;;;;10.27;7.15;;;;;;;6.94;59.95;102316.31;5000130;28;103970;-50
2022/03/12 02:55:48;;;;;;;13.13;7.60;;;;;;;6.94;59.97;102307.38;5012590;28;102616;-50
2022/03/12 02:58:16;;;;;;;11.73;7.60;;;;;;;6.93;59.70;102320.06;5011853;28;102161;-50
2022/03/12 03:00:44;;;;;;;10.82;8.00;;;;;;;6.94;59.71;102316.31;5004409;28;102828;-49
2022/03/12 03:03:11;;;;;;;9.95;7.18;;;;;;;6.93;59.80;102314.66;5006852;28;103907;-49
2022/03/12 03:05:45;;;;;;;12.13;7.30;;;;;;;6.93;59.23;102311.94;5012221;28;102179;-49
2022/03/12 03:08:16;;;;;;;13.70;7.60;;;;;;;6.94;59.63;102321.72;5012354;28;101842;-50
2022/03/12 03:10:45;;;;;;;10.77;7.00;;;;;;;6.93;59.94;102320.06;5004961;28;102047;-50
2022/03/12 03:13:35;;;;;;;9.52;7.00;;;;;;;6.92;60.19;102318.41;5000165;28;103601;-50
2022/03/12 03:16:06;;;;;;;9.52;7.25;;;;;;;6.91;59.55;102316.72;5012156;28;102366;-49
2022/03/12 03:18:38;;;;;;;11.73;7.43;;;;;;;6.93;60.15;102330.91;5019480;28;102431;-49
2022/03/12 03:21:08;;;;;;;8.68;6.75;;;;;;;6.93;60.04;102330.06;5036050;27;102054;-50
2022/03/12 03:23:34;;;;;;;9.85;6.97;;;;;;;6.92;59.93;102334.66;5019243;27;103703;-50
2022/03/12 03:26:02;;;;;;;11.15;7.38;;;;;;;6.93;59.32;102330.06;5014805;28;101930;-50
2022/03/12 03:28:29;;;;;;;8.82;6.75;;;;;;;6.93;59.67;102330.91;5021703;28;102707;-50
2022/03/12 03:30:57;;;;;;;10.70;7.35;;;;;;;6.92;59.98;102326.53;5021418;28;102032;-50
2022/03/12 03:33:25;;;;;;;10.00;7.22;;;;;;;6.93;59.69;102327.34;5013149;28;103016;-50
2022/03/12 03:35:52;;;;;;;8.68;6.72;;;;;;;6.92;59.93;102336.50;5014396;28;102136;-50
2022/03/12 03:38:19;;;;;;;11.23;7.60;;;;;;;6.90;59.21;102336.72;5018731;28;102031;-50
2022/03/12 03:40:47;;;;;;;9.90;7.15;;;;;;;6.92;59.96;102339.19;5015841;27;102201;-50
2022/03/12 03:43:15;;;;;;;9.43;7.13;;;;;;;6.91;59.57;102338.38;5004922;28;103987;-50
2022/03/12 03:45:43;;;;;;;10.25;7.05;;;;;;;6.91;59.55;102338.38;5014626;28;102900;-50
2022/03/12 03:48:14;;;;;;;9.13;7.07;;;;;;;6.92;60.24;102337.34;5013102;28;102394;-50
2022/03/12 03:50:42;;;;;;;9.30;6.85;;;;;;;6.91;60.35;102345.66;5014507;28;102093;-50
2022/03/12 03:53:11;;;;;;;9.07;6.70;;;;;;;6.90;59.10;102336.72;5013667;28;103918;-50
2022/03/12 03:55:38;;;;;;;;;;;;;;;6.92;59.70;102350.03;5013712;28;102496;-50
2022/03/12 03:58:05;;;;;;;9.68;7.00;;;;;;;6.91;60.02;102343.78;5010056;28;102581;-50
2022/03/12 04:00:32;;;;;;;8.85;6.72;;;;;;;6.90;59.60;102347.53;5014509;28;102168;-50
2022/03/12 04:03:04;;;;;;;9.77;6.57;;;;;;;6.90;59.56;102350.25;5013095;28;103924;-50
2022/03/12 04:05:34;;;;;;;8.85;6.28;;;;;;;6.92;59.99;102347.31;5014371;28;101878;-50
2022/03/12 04:08:01;;;;;;;10.02;6.47;;;;;;;6.90;59.38;102347.53;5013218;28;101982;-49
2022/03/12 04:10:30;;;;;;;8.15;6.53;;;;;;;6.91;59.31;102356.50;5013791;28;102117;-50
2022/03/12 04:12:58;;;;;;;9.93;6.35;;;;;;;6.90;59.64;102358.38;5013666;28;103907;-50
2022/03/12 04:15:25;;;;;;;10.48;6.32;;;;;;;6.92;59.67;102363.56;5014293;28;101806;-50
2022/03/12 04:17:53;;;;;;;9.93;6.50;;;;;;;6.90;60.02;102357.53;5010543;28;102193;-50
2022/03/12 04:20:21;;;;;;;9.95;6.68;;;;;;;6.91;59.61;102362.72;5003833;28;102100;-50
2022/03/12 04:22:51;;;;;;;10.35;6.75;;;;;;;6.91;59.48;102359.19;5011961;28;103932;-50
2022/03/12 04:25:20;;;;;;;10.15;6.93;;;;;;;6.91;59.89;102365.44;5014335;28;102406;-50
2022/03/12 04:27:47;;;;;;;8.30;6.30;;;;;;;6.92;59.29;102367.13;5012121;28;102256;-49
2022/03/12 04:30:18;;;;;;;8.80;6.53;;;;;;;6.92;60.39;102377.97;4994739;28;102429;-49
2022/03/12 04:32:46;;;;;;;9.25;6.63;;;;;;;6.92;60.63;102382.50;5002197;28;103560;-49
2022/03/12 04:35:15;;;;;;;10.73;7.07;;;;;;;6.90;59.45;102369.19;5013241;28;101946;-50
2022/03/12 04:37:42;;;;;;;9.40;6.65;;;;;;;6.91;59.17;102373.56;5030211;28;101915;-50
2022/03/12 04:40:16;;;;;;;9.23;6.78;;;;;;;6.91;59.89;102381.69;5013904;28;102382;-50
2022/03/12 04:42:43;;;;;;;10.18;6.68;;;;;;;6.91;59.81;102378.13;5011107;28;103977;-49
2022/03/12 04:45:11;;;;;;;9.30;6.68;;;;;;;6.91;59.42;102376.25;5005824;28;102661;-50
2022/03/12 04:47:41;;;;;;;9.10;6.28;;;;;;;6.91;59.98;102380.84;4995220;28;103840;-49
2022/03/12 04:50:09;;;;;;;8.02;6.45;;;;;;;6.92;60.23;102377.09;4993755;28;102141;-50
2022/03/12 04:52:37;;;;;;;10.73;7.00;;;;;;;6.92;59.93;102382.50;4992715;28;103526;-49
2022/03/12 04:55:07;;;;;;;9.38;6.43;;;;;;;6.92;59.29;102391.50;4993880;28;102407;-49
2022/03/12 04:57:36;;;;;;;8.13;6.45;;;;;;;6.92;59.88;102388.78;5010240;28;103809;-49
2022/03/12 05:00:03;;;;;;;8.15;6.25;;;;;;;6.91;60.00;102391.69;5013833;28;102285;-50
2022/03/12 05:02:30;;;;;;;7.90;6.43;;;;;;;6.91;59.20;102397.91;5011278;28;103709;-50
2022/03/12 05:04:56;;;;;;;8.35;6.47;;;;;;;6.92;60.01;102399.59;5013091;28;102047;-49
2022/03/12 05:07:23;;;;;;;10.43;6.45;;;;;;;6.93;60.00;102401.25;5011350;28;102037;-50
2022/03/12 05:09:55;;;;;;;8.10;6.30;;;;;;;6.93;59.79;102395.84;4993768;28;102607;-50
2022/03/12 05:12:23;;;;;;;9.38;6.65;;;;;;;6.94;59.72;102396.69;5006401;28;103732;-50
2022/03/12 05:14:53;;;;;;;9.68;6.72;;;;;;;6.94;60.57;102402.09;5013310;28;102416;-50
2022/03/12 05:17:24;;;;;;;8.35;6.45;;;;;;;6.93;60.42;102393.16;5012052;28;102318;-50
2022/03/12 05:19:51;;;;;;;7.50;6.07;;;;;;;6.93;59.75;102390.44;5013695;28;102023;-50
2022/03/12 05:22:18;;;;;;;8.65;6.40;;;;;;;6.93;60.21;102395.84;5011788;28;103904;-49
2022/03/12 05:24:44;;;;;;;8.07;6.10;;;;;;;6.94;60.14;102402.91;5011283;28;102386;-50
2022/03/12 05:27:14;;;;;;;7.03;5.88;;;;;;;6.95;59.74;102399.16;5011496;28;101924;-49
2022/03/12 05:29:41;;;;;;;7.90;5.63;;;;;;;6.95;60.23;102399.16;4999006;28;102187;-50
2022/03/12 05:32:12;;;;;;;7.65;5.82;;;;;;;6.96;59.29;102400.84;4993574;28;104097;-50
2022/03/12 05:34:40;;;;;;;6.68;5.72;;;;;;;6.96;59.79;102400.03;4992734;28;102178;-50
2022/03/12 05:37:08;;;;;;;7.15;5.82;;;;;;;6.97;59.48;102402.50;4998281;28;102564;-50
2022/03/12 05:39:36;;;;;;;8.65;6.60;;;;;;;6.96;59.99;102390.03;5010220;28;102461;-50
2022/03/12 05:42:07;;;;;;;7.68;5.68;;;;;;;6.97;60.30;102404.41;5010437;28;104093;-50
2022/03/12 05:44:34;;;;;;;8.50;6.10;;;;;;;6.97;60.64;102402.50;5007886;28;102788;-50
2022/03/12 05:47:01;;;;;;;8.57;5.97;;;;;;;6.96;60.72;102395.44;4997510;28;102147;-50
2022/03/12 05:49:29;;;;;;;9.20;6.03;;;;;;;6.97;59.94;102397.09;5012365;28;102769;-50
2022/03/12 05:51:56;;;;;;;7.45;5.78;;;;;;;6.96;59.65;102400.84;4999425;28;103961;-50
2022/03/12 05:54:23;;;;;;;7.88;5.78;;;;;;;6.97;59.75;102407.09;4991234;28;102213;-50
2022/03/12 05:56:50;;;;;;;7.75;6.10;;;;;;;6.97;60.06;102407.94;4997753;28;102043;-50
2022/03/12 05:59:18;;;;;;;8.95;5.85;;;;;;;6.97;60.18;102407.94;5011923;28;102369;-49
2022/03/12 06:01:45;;;;;;;7.20;5.50;;;;;;;6.97;60.73;102410.63;5009192;28;104030;-49
2022/03/12 06:04:11;;;;;;;7.40;5.55;;;;;;;6.97;59.61;102418.75;5012308;28;102265;-50
2022/03/12 06:06:46;;;;;;;8.60;6.20;;;;;;;6.97;59.52;102418.75;5010626;28;102609;-50
2022/03/12 06:09:13;;;;;;;5.90;5.15;;;;;;;6.98;59.69;102427.72;5003373;28;102163;-50
2022/03/12 06:11:42;;;;;;;6.95;5.95;;;;;;;6.96;60.20;102427.94;4991220;28;104104;-50
2022/03/12 06:14:15;;;;;;;8.95;5.63;;;;;;;6.96;59.75;102436.03;5005289;28;101892;-49
2022/03/12 06:16:47;;;;;;;6.97;5.38;;;;;;;6.97;59.30;102435.00;5001055;28;102550;-50
2022/03/12 06:19:15;;;;;;;7.55;5.40;;;;;;;6.95;60.04;102431.66;4992990;28;102158;-50
2022/03/12 06:21:44;;;;;;;5.97;4.13;;;;;;;6.97;59.53;102440.41;5004968;28;103893;-50
2022/03/12 06:24:10;;;;;;;7.13;5.43;;;;;;;6.97;60.03;102439.59;5012396;28;102667;-50
2022/03/12 06:26:39;;;;;;;6.47;5.30;;;;;;;6.97;59.74;102439.59;5009879;28;102191;-50
2022/03/12 06:29:12;;;;;;;6.95;5.80;;;;;;;6.96;60.00;102435.22;5012051;28;103167;-50
2022/03/12 06:31:40;;;;;;;8.35;5.82;;;;;;;6.97;60.04;102440.41;5010385;28;104152;-51
2022/03/12 06:34:09;;;;;;;7.43;5.63;;;;;;;6.96;59.72;102441.47;5012483;28;102260;-50
2022/03/12 06:36:37;;;;;;;8.05;5.57;;;;;;;6.97;60.01;102458.53;5010589;28;102029;-50
2022/03/12 06:39:06;;;;;;;7.13;5.60;;;;;;;6.96;59.89;102452.28;5011484;28;104145;-50
2022/03/12 06:41:35;;;;;;;7.20;5.38;;;;;;;6.97;59.93;102462.06;5009275;28;103900;-50
2022/03/12 06:44:02;;;;;;;7.63;5.57;;;;;;;6.98;60.40;102457.47;5011125;28;102393;-50
2022/03/12 06:46:30;;;;;;;7.53;5.55;;;;;;;6.96;59.96;102452.28;5010340;28;102344;-50
2022/03/12 06:48:57;;;;;;;6.95;5.05;;;;;;;6.98;59.73;102460.19;5012034;28;102372;-49
2022/03/12 06:51:24;;;;;;;7.28;5.05;;;;;;;6.97;59.88;102455.81;5009993;28;103923;-50
2022/03/12 06:53:52;;;;;;;7.05;5.20;;;;;;;6.97;59.74;102456.66;5010746;28;102550;-50
2022/03/12 06:56:21;;;;;;;7.70;5.18;;;;;;;6.97;59.71;102459.34;5003216;28;102466;-49
2022/03/12 06:58:47;;;;;;;5.83;4.43;;;;;;;6.98;60.19;102458.31;5008307;28;102362;-50
2022/03/12 07:01:14;;;;;;;7.75;5.30;;;;;;;6.97;59.66;102462.06;4996692;28;104103;-49
2022/03/12 07:03:40;;;;;;;8.10;5.57;;;;;;;6.97;60.02;102472.91;5010820;28;102868;-50
2022/03/12 07:06:07;;;;;;;7.82;5.88;;;;;;;6.98;59.07;102469.13;5006875;28;102362;-49
2022/03/12 07:08:35;;;;;;;5.50;4.85;;;;;;;6.98;59.71;102463.72;5012004;28;102481;-49
2022/03/12 07:11:03;;;;;;;6.37;5.23;;;;;;;6.99;59.46;102468.09;4996444;28;103776;-49
2022/03/12 07:13:31;;;;;;;8.00;5.30;;;;;;;6.98;60.06;102474.56;5015472;28;102419;-50
2022/03/12 07:16:00;;;;;;;7.78;5.15;;;;;;;6.98;59.04;102474.56;5004171;28;102367;-49
2022/03/12 07:18:27;;;;;;;5.77;4.27;;;;;;;6.98;59.99;102469.13;5004220;28;102520;-50
2022/03/12 07:20:54;;;;;;;6.13;4.70;;;;;;;6.98;59.65;102461.03;5006082;28;103649;-49
2022/03/12 07:23:26;;;;;;;6.72;4.93;;;;;;;6.97;60.13;102458.53;4998486;28;102630;-49
2022/03/12 07:25:55;;;;;;;6.70;5.38;;;;;;;6.97;59.65;102462.06;5009887;28;102450;-50
2022/03/12 07:28:22;;;;;;;6.50;4.80;;;;;;;6.97;59.51;102466.66;5010056;28;102016;-49
2022/03/12 07:30:50;;;;;;;6.70;4.70;;;;;;;6.98;59.41;102458.31;5009107;28;103949;-50
2022/03/12 07:33:19;;;;;;;6.40;4.55;;;;;;;6.97;59.44;102455.81;5014511;28;102674;-50
2022/03/12 07:35:45;;;;;;;7.10;4.70;;;;;;;6.98;59.87;102457.47;5012633;27;102068;-49
2022/03/12 07:38:12;;;;;;;6.18;4.60;;;;;;;6.98;59.66;102452.06;5009128;28;102213;-50
2022/03/12 07:40:40;;;;;;;6.47;4.45;;;;;;;6.98;60.36;102457.47;5016378;28;103978;-49
2022/03/12 07:43:06;;;;;;;6.28;4.63;;;;;;;6.97;59.81;102463.94;5009539;28;102255;-50
2022/03/12 07:45:33;;;;;;;6.85;4.68;;;;;;;6.97;59.86;102472.06;5001655;28;102119;-49
2022/03/12 07:48:01;;;;;;;7.45;4.47;;;;;;;6.98;60.30;102473.72;5009780;28;101988;-49
2022/03/12 07:50:27;;;;;;;6.22;4.50;;;;;;;6.97;59.93;102470.19;5000440;28;104065;-50
2022/03/12 07:52:54;;;;;;;6.13;4.25;;;;;;;6.96;59.82;102465.81;5012084;28;102107;-50
2022/03/12 07:55:21;;;;;;;5.88;4.45;;;;;;;6.97;59.41;102481.00;5003935;28;102075;-49
2022/03/12 07:57:48;;;;;;;8.45;4.20;;;;;;;6.97;59.85;102475.59;5004333;28;102520;-49
2022/03/12 08:00:16;;;;;;;6.65;4.55;;;;;;;6.97;60.06;102472.06;5006538;28;103866;-50
2022/03/12 08:02:44;;;;;;;5.78;4.50;;;;;;;6.97;59.47;102472.06;5003667;28;102278;-50
2022/03/12 08:05:17;;;;;;;5.53;4.30;;;;;;;6.97;59.34;102463.94;4995604;28;103748;-50
2022/03/12 08:07:44;;;;;;;6.57;4.28;;;;;;;6.97;59.35;102469.34;5004582;28;102386;-49
2022/03/12 08:10:11;;;;;;;4.75;4.00;;;;;;;6.97;59.33;102481.00;5013034;28;103839;-50
2022/03/12 08:12:43;;;;;;;6.30;4.40;;;;;;;6.97;59.93;102472.06;5014426;28;102318;-50
2022/03/12 08:15:12;;;;;;;6.18;4.28;;;;;;;6.97;59.56;102478.31;5013385;28;101880;-50
2022/03/12 08:17:38;;;;;;;4.88;3.55;;;;;;;6.97;59.61;102467.47;5015065;28;102322;-49
2022/03/12 08:20:06;;;;;;;5.03;4.05;;;;;;;6.98;60.07;102473.72;5013957;28;103877;-49
2022/03/12 08:22:37;;;;;;;5.25;4.20;;;;;;;6.98;59.36;102469.13;5014133;28;102382;-51
2022/03/12 08:25:07;;;;;;;7.95;4.32;;;;;;;6.98;59.33;102463.72;5013995;28;102618;-49
2022/03/12 08:27:34;;;;;;;5.78;3.40;;;;;;;6.98;58.75;102463.72;5014378;28;102517;-49
2022/03/12 08:30:01;;;;;;;6.85;4.40;;;;;;;6.99;59.66;102453.72;5013494;28;104094;-49
2022/03/12 08:32:27;;;;;;;6.47;3.88;;;;;;;6.98;59.21;102458.31;5013742;28;101941;-50
2022/03/12 08:34:57;;;;;;;4.68;3.85;;;;;;;6.99;59.45;102459.97;5013327;28;102408;-49
2022/03/12 08:37:24;;;;;;;6.03;4.30;;;;;;;7.01;59.43;102458.97;5011486;28;102031;-49
2022/03/12 08:39:52;;;;;;;4.90;3.63;;;;;;;7.01;58.98;102446.25;5004723;28;104109;-49
2022/03/12 08:42:18;;;;;;;6.93;4.10;;;;;;;7.01;59.52;102458.97;5010519;28;102734;-49
2022/03/12 08:44:45;;;;;;;4.65;3.50;;;;;;;7.02;59.41;102452.50;5000249;28;102125;-49
2022/03/12 08:47:11;;;;;;;4.13;3.15;;;;;;;7.02;58.84;102460.63;5013924;28;102311;-49
2022/03/12 08:49:38;;;;;;;5.20;3.75;;;;;;;7.01;59.83;102450.84;5012147;28;103051;-50
2022/03/12 08:52:05;;;;;;;3.67;3.10;;;;;;;7.03;59.10;102454.16;5014005;28;102430;-50
2022/03/12 08:54:32;;;;;;;4.55;3.25;;;;;;;7.02;58.67;102457.91;5013589;28;102310;-50
2022/03/12 08:57:00;;;;;;;4.75;3.38;;;;;;;7.02;59.06;102463.31;5014455;28;102137;-50
2022/03/12 08:59:26;;;;;;;4.28;3.38;;;;;;;7.02;59.06;102452.50;5013628;28;104006;-49
2022/03/12 09:01:54;;;;;;;4.47;3.28;;;;;;;7.02;58.56;102452.50;5014603;28;102355;-49
2022/03/12 09:04:21;;;;;;;5.15;3.40;;;;;;;7.03;59.65;102448.75;5013455;28;101982;-50
2022/03/12 09:06:59;;;;;;;3.75;3.22;;;;;;;7.03;59.42;102448.75;4994660;28;101939;-50
2022/03/12 09:09:26;;;;;;;4.45;3.10;;;;;;;7.04;59.75;102445.00;4991641;28;104195;-50
2022/03/12 09:11:54;;;;;;;4.82;3.08;;;;;;;7.03;59.34;102436.03;4993633;28;102405;-49
2022/03/12 09:14:22;;;;;;;4.88;3.58;;;;;;;7.03;59.19;102422.50;4992305;28;101933;-50
2022/03/12 09:16:49;;;;;;;4.60;3.28;;;;;;;7.04;58.38;102424.19;4993972;28;102809;-50
2022/03/12 09:19:34;;;;;;;4.00;3.00;;;;;;;7.04;58.75;102418.78;4992537;28;104133;-50
2022/03/12 09:22:02;;;;;;;3.85;2.88;;;;;;;7.03;59.37;102427.09;4999100;28;102115;-49
2022/03/12 09:24:29;;;;;;;4.50;3.00;;;;;;;7.03;59.15;102435.19;5032008;27;101985;-49
2022/03/12 09:26:55;;;;;;;4.95;3.22;;;;;;;7.03;59.80;102427.09;5033382;28;102396;-50
2022/03/12 09:29:23;;;;;;;4.07;2.83;;;;;;;7.03;59.48;102427.91;5031906;28;104010;-49
2022/03/12 09:31:49;;;;;;;4.30;2.92;;;;;;;7.04;58.80;102428.78;5025158;27;101930;-50
2022/03/12 09:34:16;;;;;;;3.72;2.90;;;;;;;7.03;59.23;102419.78;5012665;28;101951;-49
2022/03/12 09:36:43;;;;;;;4.03;2.70;;;;;;;7.04;59.59;102426.06;5013131;28;102104;-50
2022/03/12 09:39:10;;;;;;;4.13;2.70;;;;;;;7.03;59.15;102419.78;5011304;28;104122;-50
2022/03/12 09:41:38;;;;;;;2.70;2.15;;;;;;;7.03;59.44;102410.84;5012743;28;102438;-50
2022/03/12 09:44:05;;;;;;;4.63;2.28;;;;;;;7.04;59.17;102412.53;5010671;28;101885;-49
2022/03/12 09:46:33;;;;;;;3.63;2.40;;;;;;;7.04;59.04;102423.34;5013239;28;102437;-50
2022/03/12 09:48:59;;;;;;;3.78;2.63;;;;;;;7.03;58.79;102416.25;5011337;28;103905;-49
2022/03/12 09:51:28;;;;;;;3.72;2.47;;;;;;;7.02;58.39;102411.88;5012473;28;102218;-50
2022/03/12 09:53:56;;;;;;;3.83;2.45;;;;;;;7.03;59.59;102405.44;5011915;28;102383;-50
2022/03/12 09:56:23;;;;;;;3.33;2.15;;;;;;;7.03;59.20;102402.72;5013333;28;102557;-50
2022/03/12 09:58:50;;;;;;;4.57;2.50;;;;;;;7.02;59.70;102404.59;5005731;28;103896;-50
2022/03/12 10:01:17;;;;;;;3.55;2.47;;;;;;;7.03;59.67;102410.84;4999756;28;102682;-50
2022/03/12 10:03:45;;;;;;;2.28;1.90;;;;;;;7.02;58.74;102396.47;5011377;28;101989;-50
2022/03/12 10:06:13;;;;;;;3.03;2.30;;;;;;;7.02;58.78;102398.34;5013219;28;102144;-50
2022/03/12 10:08:40;;;;;;;2.92;2.25;;;;;;;7.02;58.82;102404.59;5011193;28;103954;-50
2022/03/12 10:11:28;;;;;;;3.38;2.30;;;;;;;7.03;59.04;102394.59;5012311;28;102115;-50
2022/03/12 10:13:55;;;;;;;3.03;2.17;;;;;;;7.01;59.31;102391.28;5009918;28;102184;-49
2022/03/12 10:16:22;;;;;;;3.05;2.17;;;;;;;7.01;59.14;102375.88;5006208;28;103903;-49
2022/03/12 10:18:50;;;;;;;3.92;2.45;;;;;;;7.01;58.89;102375.88;4995046;28;104081;-49
2022/03/12 10:21:17;;;;;;;2.88;1.90;;;;;;;7.01;58.97;102381.28;4995798;28;102503;-50
2022/03/12 10:23:43;;;;;;;2.83;2.00;;;;;;;7.01;59.20;102375.03;5003791;28;102103;-49
2022/03/12 10:26:10;;;;;;;2.30;2.00;;;;;;;7.02;58.61;102371.28;5000024;28;102323;-49
2022/03/12 10:28:37;;;;;;;4.15;2.30;;;;;;;7.02;58.36;102357.75;5010747;28;103856;-49
2022/03/12 10:31:05;;;;;;;3.45;1.92;;;;;;;7.01;59.33;102364.22;5012027;28;101957;-50
2022/03/12 10:33:33;;;;;;;3.70;1.92;;;;;;;7.00;58.29;102363.38;5011783;28;102537;-49
2022/03/12 10:36:11;;;;;;;3.15;1.85;;;;;;;7.02;59.11;102357.75;5010567;28;102242;-49
2022/03/12 10:38:41;;;;;;;3.13;1.80;;;;;;;7.01;59.16;102359.63;5009787;28;103841;-50
2022/03/12 10:41:08;;;;;;;3.70;2.00;;;;;;;7.01;59.24;102350.69;5011570;28;102241;-49
2022/03/12 10:43:46;;;;;;;2.45;1.80;;;;;;;7.01;58.99;102348.81;5029547;28;102452;-50
2022/03/12 10:46:25;;;;;;;3.95;2.15;;;;;;;7.01;59.17;102337.16;5023041;28;102418;-49
2022/03/12 10:48:56;;;;;;;2.60;1.73;;;;;;;7.01;59.01;102342.56;5011247;28;103806;-49
2022/03/12 10:51:26;;;;;;;2.65;2.10;;;;;;;7.01;59.13;102337.16;5011922;28;101920;-50
2022/03/12 10:54:04;;;;;;;2.33;1.80;;;;;;;7.02;59.77;102322.56;5010153;28;102019;-50
2022/03/12 10:56:40;;;;;;;3.05;2.00;;;;;;;7.01;58.96;102337.16;5012821;28;102059;-49
2022/03/12 10:59:11;;;;;;;2.47;1.98;;;;;;;7.00;59.21;102330.91;5009749;28;103913;-49
2022/03/12 11:01:45;;;;;;;2.40;1.70;;;;;;;6.99;58.76;102321.09;5008379;28;102651;-49
2022/03/12 11:04:16;;;;;;;2.50;1.70;;;;;;;6.99;59.16;102319.22;5008380;28;102056;-50
2022/03/12 11:06:45;;;;;;;2.63;1.85;;;;;;;6.98;59.37;102314.84;5005088;28;102125;-49
2022/03/12 11:09:15;;;;;;;2.80;1.50;;;;;;;6.98;58.90;102314.84;5004940;28;104097;-49
2022/03/12 11:11:43;;;;;;;2.30;1.77;;;;;;;6.97;58.78;102315.91;4992176;28;101965;-49
2022/03/12 11:14:17;;;;;;;2.53;1.73;;;;;;;6.97;59.05;102310.47;4992889;28;102158;-49
2022/03/12 11:16:50;;;;;;;2.60;1.60;;;;;;;6.97;59.06;102305.06;4999476;28;102096;-49
2022/03/12 11:19:37;;;;;;;2.40;1.60;;;;;;;6.97;58.13;102299.66;5009543;28;105058;-49
2022/03/12 11:22:12;;;;;;;1.80;1.50;;;;;;;6.98;59.08;102304.03;5016031;28;102723;-49
2022/03/12 11:24:47;;;;;;;2.45;1.67;;;;;;;6.99;58.71;102296.72;5006529;28;102406;-50
2022/03/12 11:27:18;;;;;;;2.15;1.60;;;;;;;6.98;58.81;102293.19;4993133;28;102215;-49
2022/03/12 11:29:56;;;;;;;1.70;1.40;;;;;;;6.98;58.29;102286.94;5003411;28;103797;-49
2022/03/12 11:32:22;;;;;;;4.05;1.85;;;;;;;6.98;59.42;102285.06;5000916;28;104030;-50